Time;durP1;ratioP1;P1;durP2;ratioP2;P2;SDS_P1;SDS_P2;PMS_P1;PMS_P2;Temp;Humidity;BMP_temperature;BMP_pressure;BME280_temperature;BME280_humidity;BME280_pressure;Samples;Min_cycle;Max_cycle;Signal;HPM_P1;HPM_P2
2022/11/22 00:01:37;;;;;;;19.67;11.57;;;-0.90;99.90;;;;;;5014069;28;20195;-44
2022/11/22 00:04:04;;;;;;;18.17;11.40;;;-0.80;99.90;;;;;;5006506;28;20214;-44
2022/11/22 00:06:31;;;;;;;15.53;10.47;;;-0.80;99.90;;;;;;5006064;28;20225;-45
2022/11/22 00:08:59;;;;;;;17.07;11.20;;;-0.80;99.90;;;;;;5021135;28;20248;-46
2022/11/22 00:11:26;;;;;;;17.47;10.67;;;-0.80;99.90;;;;;;5019683;28;20673;-49
2022/11/22 00:13:54;;;;;;;18.63;11.50;;;-0.80;99.90;;;;;;5004209;28;20216;-44
2022/11/22 00:16:21;;;;;;;17.77;11.53;;;-0.80;99.90;;;;;;5020287;28;20236;-44
2022/11/22 00:18:48;;;;;;;16.67;11.13;;;-0.80;99.90;;;;;;5021524;28;20205;-43
2022/11/22 00:21:15;;;;;;;16.33;10.70;;;-0.80;99.90;;;;;;5007081;28;20213;-44
2022/11/22 00:23:42;;;;;;;17.23;11.20;;;-0.80;99.90;;;;;;5016201;28;20208;-45
2022/11/22 00:26:10;;;;;;;16.80;11.17;;;-0.80;99.90;;;;;;5023031;28;20225;-47
2022/11/22 00:28:38;;;;;;;15.07;10.43;;;-0.80;99.90;;;;;;5014270;28;20445;-43
2022/11/22 00:31:05;;;;;;;21.10;11.70;;;-0.80;99.90;;;;;;5023072;28;20198;-46
2022/11/22 00:33:32;;;;;;;18.13;10.13;;;-0.70;99.90;;;;;;5019020;28;20207;-47
2022/11/22 00:35:59;;;;;;;16.73;10.80;;;-0.70;99.90;;;;;;5008524;28;20225;-46
2022/11/22 00:38:25;;;;;;;21.10;11.77;;;-0.70;99.90;;;;;;5014237;28;20198;-47
2022/11/22 00:40:52;;;;;;;18.00;10.77;;;-0.70;99.90;;;;;;5023357;28;20674;-42
2022/11/22 00:43:20;;;;;;;19.60;11.60;;;-0.70;99.90;;;;;;5018300;28;20207;-44
2022/11/22 00:45:47;;;;;;;17.67;12.17;;;-0.70;99.90;;;;;;5019865;28;20225;-47
2022/11/22 00:48:14;;;;;;;21.60;13.00;;;-0.70;99.90;;;;;;5022243;28;20236;-47
2022/11/22 00:50:41;;;;;;;20.00;12.47;;;-0.70;99.90;;;;;;5020647;28;20300;-42
2022/11/22 00:53:08;;;;;;;19.63;11.10;;;-0.70;99.90;;;;;;5002242;28;20573;-45
2022/11/22 00:55:35;;;;;;;18.93;11.23;;;-0.60;99.90;;;;;;5018969;28;20296;-42
2022/11/22 00:58:02;;;;;;;21.03;12.17;;;-0.60;99.90;;;;;;5023247;28;20208;-47
2022/11/22 01:00:30;;;;;;;20.03;11.93;;;-0.60;99.90;;;;;;5012806;28;20317;-43
2022/11/22 01:02:57;;;;;;;18.33;12.57;;;-0.60;99.90;;;;;;5023097;28;20257;-46
2022/11/22 01:05:24;;;;;;;18.10;12.60;;;-0.60;99.90;;;;;;5019202;28;20232;-42
2022/11/22 01:07:51;;;;;;;18.73;11.83;;;-0.60;99.90;;;;;;5008318;28;20239;-40
2022/11/22 01:10:17;;;;;;;19.37;11.50;;;-0.60;99.90;;;;;;5012060;28;20205;-41
2022/11/22 01:12:44;;;;;;;21.00;12.50;;;-0.60;99.90;;;;;;5020977;28;20211;-41
2022/11/22 01:15:11;;;;;;;20.27;12.57;;;-0.60;99.90;;;;;;5014303;28;20279;-45
2022/11/22 01:17:40;;;;;;;18.13;11.83;;;-0.60;99.90;;;;;;5015970;28;20293;-41
2022/11/22 01:20:08;;;;;;;22.93;14.03;;;-0.60;99.90;;;;;;5022992;28;20229;-43
2022/11/22 01:22:35;;;;;;;21.17;12.67;;;-0.60;99.90;;;;;;5003903;28;22218;-42
2022/11/22 01:25:02;;;;;;;20.97;12.37;;;-0.60;99.90;;;;;;5016914;28;20230;-43
2022/11/22 01:27:29;;;;;;;17.63;11.73;;;-0.60;99.90;;;;;;5018929;28;20201;-43
2022/11/22 01:29:56;;;;;;;22.03;13.63;;;-0.60;99.90;;;;;;5022756;28;20874;-42
2022/11/22 01:32:23;;;;;;;25.13;12.90;;;-0.60;99.90;;;;;;5012365;28;20248;-43
2022/11/22 01:34:52;;;;;;;22.10;12.63;;;-0.50;99.90;;;;;;5022187;28;20225;-42
2022/11/22 01:37:19;;;;;;;22.63;12.67;;;-0.60;99.90;;;;;;5020323;28;20229;-44
2022/11/22 01:39:46;;;;;;;21.90;13.20;;;-0.50;99.90;;;;;;5001243;28;20342;-46
2022/11/22 01:42:13;;;;;;;21.93;13.20;;;-0.50;99.90;;;;;;5018867;28;20272;-45
2022/11/22 01:44:41;;;;;;;23.47;13.87;;;-0.50;99.90;;;;;;5014982;28;20217;-44
2022/11/22 01:47:12;;;;;;;24.03;14.13;;;-0.50;99.90;;;;;;5010101;28;20216;-42
2022/11/22 01:49:44;;;;;;;20.90;12.83;;;-0.50;99.90;;;;;;5018821;28;20198;-42
2022/11/22 01:52:17;;;;;;;22.33;13.13;;;-0.50;99.90;;;;;;5025122;28;21545;-44
2022/11/22 01:54:48;;;;;;;22.10;12.57;;;-0.50;99.90;;;;;;5010301;28;21352;-43
2022/11/22 01:57:22;;;;;;;23.17;12.47;;;-0.50;99.90;;;;;;5024444;28;20209;-47
2022/11/22 01:59:53;;;;;;;22.70;13.43;;;-0.50;99.90;;;;;;5025106;28;20202;-45
2022/11/22 02:02:21;;;;;;;25.43;13.50;;;-0.50;99.90;;;;;;5015280;28;20244;-45
2022/11/22 02:04:50;;;;;;;21.90;13.90;;;-0.50;99.90;;;;;;5010772;28;20237;-45
2022/11/22 02:07:23;;;;;;;21.03;12.73;;;-0.50;99.90;;;;;;5013738;28;20835;-43
2022/11/22 02:09:52;;;;;;;26.10;13.87;;;-0.50;99.90;;;;;;5020724;28;20219;-44
2022/11/22 02:12:29;;;;;;;24.13;13.63;;;-0.40;99.90;;;;;;5008815;28;20206;-44
2022/11/22 02:14:56;;;;;;;24.53;14.33;;;-0.40;99.90;;;;;;5019918;28;20224;-44
2022/11/22 02:17:25;;;;;;;22.23;13.43;;;-0.40;99.90;;;;;;5016625;28;20201;-45
2022/11/22 02:19:52;;;;;;;21.27;12.63;;;-0.40;99.90;;;;;;5024476;28;20676;-43
2022/11/22 02:22:30;;;;;;;23.77;13.63;;;-0.40;99.90;;;;;;5012964;28;20430;-43
2022/11/22 02:25:06;;;;;;;21.73;13.37;;;-0.40;99.90;;;;;;5013689;28;20766;-43
2022/11/22 02:27:34;;;;;;;24.67;13.77;;;-0.40;99.90;;;;;;5016619;28;20206;-44
2022/11/22 02:30:01;;;;;;;24.77;13.70;;;-0.40;99.90;;;;;;5007158;28;20201;-44
2022/11/22 02:32:28;;;;;;;26.10;13.13;;;-0.40;99.90;;;;;;5017925;28;20221;-45
2022/11/22 02:34:55;;;;;;;25.30;13.93;;;-0.40;99.90;;;;;;5007669;28;20745;-41
2022/11/22 02:37:27;;;;;;;20.43;12.60;;;-0.40;99.90;;;;;;5014666;28;20213;-42
2022/11/22 02:39:58;;;;;;;24.63;12.70;;;-0.40;99.90;;;;;;5015056;28;20253;-45
2022/11/22 02:42:27;;;;;;;24.47;13.40;;;-0.40;99.90;;;;;;5009055;28;20225;-42
2022/11/22 02:44:55;;;;;;;25.17;13.07;;;-0.40;99.90;;;;;;5022667;28;20219;-44
2022/11/22 02:47:22;;;;;;;26.83;14.53;;;-0.40;99.90;;;;;;5024435;28;20204;-41
2022/11/22 02:49:49;;;;;;;21.53;13.10;;;-0.40;99.90;;;;;;5017213;28;20309;-42
2022/11/22 02:52:17;;;;;;;24.40;13.27;;;-0.40;99.90;;;;;;5022986;28;20216;-44
2022/11/22 02:54:44;;;;;;;26.60;14.27;;;-0.40;99.90;;;;;;5024357;28;20218;-45
2022/11/22 02:57:12;;;;;;;23.90;13.67;;;-0.40;99.90;;;;;;4999034;28;20210;-42
2022/11/22 02:59:39;;;;;;;20.50;12.57;;;-0.30;99.90;;;;;;5016538;28;20536;-42
2022/11/22 03:02:07;;;;;;;23.73;12.93;;;-0.30;99.90;;;;;;5018514;28;20945;-42
2022/11/22 03:04:34;;;;;;;24.87;14.53;;;-0.30;99.90;;;;;;5014344;28;20654;-43
2022/11/22 03:07:01;;;;;;;25.97;14.03;;;-0.30;99.90;;;;;;5021167;28;20212;-42
2022/11/22 03:09:29;;;;;;;24.30;13.67;;;-0.30;99.90;;;;;;5012803;28;20278;-42
2022/11/22 03:11:56;;;;;;;24.80;13.83;;;-0.30;99.90;;;;;;5002647;28;20217;-44
2022/11/22 03:14:23;;;;;;;20.57;13.03;;;-0.30;99.90;;;;;;5023513;28;20200;-44
2022/11/22 03:16:51;;;;;;;23.80;13.83;;;-0.30;99.90;;;;;;5023316;28;20202;-45
2022/11/22 03:19:19;;;;;;;23.43;13.67;;;-0.30;99.90;;;;;;5017655;28;20211;-42
2022/11/22 03:21:46;;;;;;;24.17;14.17;;;-0.30;99.90;;;;;;5023794;28;20308;-47
2022/11/22 03:24:13;;;;;;;24.17;12.53;;;-0.30;99.90;;;;;;5021525;28;20201;-41
2022/11/22 03:26:40;;;;;;;26.13;14.33;;;-0.30;99.90;;;;;;5024529;28;20226;-45
2022/11/22 03:29:07;;;;;;;24.37;13.37;;;-0.40;99.90;;;;;;5002226;28;20820;-49
2022/11/22 03:31:34;;;;;;;25.47;13.90;;;-0.40;99.90;;;;;;5017367;28;20205;-46
2022/11/22 03:34:01;;;;;;;31.07;13.37;;;-0.40;99.90;;;;;;5013891;28;20220;-43
2022/11/22 03:36:29;;;;;;;28.30;14.60;;;-0.30;99.90;;;;;;5018846;28;20244;-46
2022/11/22 03:38:56;;;;;;;22.90;13.43;;;-0.30;99.90;;;;;;5021685;28;20871;-42
2022/11/22 03:41:23;;;;;;;24.53;13.73;;;-0.30;99.90;;;;;;5025754;28;20236;-45
2022/11/22 03:43:50;;;;;;;21.80;13.47;;;-0.30;99.90;;;;;;5006552;28;20210;-43
2022/11/22 03:46:19;;;;;;;22.37;13.10;;;-0.30;99.90;;;;;;5015422;28;20216;-45
2022/11/22 03:48:46;;;;;;;26.03;14.17;;;-0.30;99.90;;;;;;5022194;28;20225;-46
2022/11/22 03:51:13;;;;;;;25.67;13.87;;;-0.30;99.90;;;;;;5016025;28;20438;-44
2022/11/22 03:53:41;;;;;;;24.13;14.07;;;-0.30;99.90;;;;;;5024079;28;20214;-46
2022/11/22 03:56:08;;;;;;;24.60;14.00;;;-0.30;99.90;;;;;;5020164;28;20884;-43
2022/11/22 03:58:36;;;;;;;26.93;15.07;;;-0.30;99.90;;;;;;5010238;28;20574;-42
2022/11/22 04:01:03;;;;;;;25.23;13.70;;;-0.30;99.90;;;;;;5021792;28;20204;-41
2022/11/22 04:03:30;;;;;;;25.20;14.07;;;-0.30;99.90;;;;;;5024202;28;20197;-43
2022/11/22 04:05:57;;;;;;;27.37;14.87;;;-0.30;99.90;;;;;;5021068;28;20235;-44
2022/11/22 04:08:24;;;;;;;22.10;13.80;;;-0.30;99.90;;;;;;5017379;28;20198;-42
2022/11/22 04:10:52;;;;;;;23.30;14.53;;;-0.30;99.90;;;;;;5024460;28;20204;-44
2022/11/22 04:13:19;;;;;;;24.63;14.73;;;-0.30;99.90;;;;;;4995343;28;20244;-41
2022/11/22 04:15:45;;;;;;;21.97;12.13;;;-0.30;99.90;;;;;;5014695;28;20222;-42
2022/11/22 04:18:13;;;;;;;23.70;13.93;;;-0.30;99.90;;;;;;5018838;28;20884;-44
2022/11/22 04:23:26;;;;;;;23.07;13.87;;;-0.20;99.90;;;;;;5017985;28;20200;-43
2022/11/22 04:25:54;;;;;;;24.13;13.43;;;-0.20;99.90;;;;;;5021245;28;20701;-41
2022/11/22 04:28:23;;;;;;;24.07;14.23;;;-0.20;99.90;;;;;;5022565;28;20190;-44
2022/11/22 04:33:35;;;;;;;22.33;14.30;;;-0.20;99.90;;;;;;5020619;28;20250;-47
2022/11/22 04:36:02;;;;;;;25.87;14.47;;;-0.20;99.90;;;;;;5019135;28;20732;-45
2022/11/22 04:38:29;;;;;;;21.90;12.63;;;-0.10;99.90;;;;;;5022945;28;20202;-42
2022/11/22 04:40:57;;;;;;;24.17;14.23;;;-0.10;99.90;;;;;;5014229;28;20213;-48
2022/11/22 04:46:10;;;;;;;21.90;13.60;;;-0.10;99.90;;;;;;5001134;28;20769;-43
2022/11/22 04:48:38;;;;;;;23.07;14.37;;;-0.10;99.90;;;;;;5020129;28;20187;-48
2022/11/22 04:53:50;;;;;;;23.50;14.20;;;-0.10;99.90;;;;;;5019766;28;20622;-43
2022/11/22 04:56:19;;;;;;;23.93;14.67;;;0.00;99.90;;;;;;5014442;28;20233;-44
2022/11/22 04:58:46;;;;;;;28.63;15.17;;;0.00;99.90;;;;;;5018319;28;20256;-46
2022/11/22 05:01:35;;;;;;;24.37;13.97;;;0.00;99.90;;;;;;5001078;28;20225;-48
2022/11/22 05:04:02;;;;;;;22.93;13.33;;;0.00;99.90;;;;;;5021329;28;20450;-45
2022/11/22 05:06:29;;;;;;;21.93;14.53;;;0.10;99.90;;;;;;5020113;28;20222;-45
2022/11/22 05:08:56;;;;;;;21.77;13.60;;;0.10;99.90;;;;;;5013922;28;20213;-47
2022/11/22 05:11:24;;;;;;;23.37;14.63;;;0.10;99.90;;;;;;4992600;28;20202;-44
2022/11/22 05:13:50;;;;;;;27.60;15.77;;;0.10;99.90;;;;;;5017180;28;20624;-42
2022/11/22 05:16:17;;;;;;;23.37;14.17;;;0.10;99.90;;;;;;4992360;28;20227;-42
2022/11/22 05:19:06;;;;;;;22.67;13.70;;;0.10;99.90;;;;;;5021113;28;20696;-46
2022/11/22 05:21:36;;;;;;;25.80;15.20;;;0.20;99.90;;;;;;5017310;28;20287;-46
2022/11/22 05:24:02;;;;;;;24.40;14.13;;;0.20;99.90;;;;;;5016513;28;20201;-47
2022/11/22 05:26:31;;;;;;;25.70;15.07;;;0.20;99.90;;;;;;5021559;28;20948;-47
2022/11/22 05:29:02;;;;;;;25.30;15.17;;;0.20;99.90;;;;;;5025474;28;20202;-47
2022/11/22 05:31:33;;;;;;;25.30;14.20;;;0.20;99.90;;;;;;5020147;28;20205;-43
2022/11/22 05:34:00;;;;;;;25.23;13.73;;;0.30;99.90;;;;;;5007529;28;20396;-44
2022/11/22 05:36:30;;;;;;;23.60;14.10;;;0.30;99.90;;;;;;5022808;28;20215;-45
2022/11/22 05:38:57;;;;;;;21.83;13.53;;;0.30;99.90;;;;;;5016009;28;20217;-43
2022/11/22 05:41:24;;;;;;;23.43;14.03;;;0.30;99.90;;;;;;5014579;28;20878;-42
2022/11/22 05:43:54;;;;;;;22.87;14.73;;;0.30;99.90;;;;;;5022149;28;20198;-42
2022/11/22 05:46:22;;;;;;;23.57;13.93;;;0.30;99.90;;;;;;5014951;28;20217;-41
2022/11/22 05:48:50;;;;;;;23.17;14.60;;;0.30;99.90;;;;;;5009854;28;20215;-43
2022/11/22 05:51:19;;;;;;;21.83;13.77;;;0.30;99.90;;;;;;5023475;28;20231;-45
2022/11/22 05:53:47;;;;;;;23.33;15.27;;;0.40;99.90;;;;;;5004310;28;20901;-45
2022/11/22 05:56:16;;;;;;;21.23;14.07;;;0.40;99.90;;;;;;5006863;28;20634;-45
2022/11/22 05:58:42;;;;;;;25.80;14.43;;;0.40;99.90;;;;;;5013021;28;20212;-42
2022/11/22 06:01:13;;;;;;;24.77;13.87;;;0.40;99.90;;;;;;5013831;28;20207;-42
2022/11/22 06:03:40;;;;;;;27.67;14.83;;;0.50;99.90;;;;;;5011210;28;20826;-42
2022/11/22 06:06:08;;;;;;;24.23;14.27;;;0.50;99.90;;;;;;5021966;28;20653;-41
2022/11/22 06:08:36;;;;;;;25.13;14.33;;;0.50;99.90;;;;;;5024607;28;20968;-43
2022/11/22 06:11:05;;;;;;;23.10;14.47;;;0.50;99.90;;;;;;5012452;28;20212;-57
2022/11/22 06:13:34;;;;;;;23.10;14.73;;;0.50;99.90;;;;;;5005993;28;20213;-41
2022/11/22 06:16:00;;;;;;;24.00;14.90;;;0.60;99.90;;;;;;5019966;28;20270;-41
2022/11/22 06:18:29;;;;;;;25.33;15.93;;;0.60;99.90;;;;;;5005194;28;20221;-41
2022/11/22 06:20:57;;;;;;;22.83;14.57;;;0.60;99.90;;;;;;5004611;28;20261;-41
2022/11/22 06:23:24;;;;;;;26.43;15.33;;;0.60;99.90;;;;;;5013268;28;20195;-40
2022/11/22 06:25:56;;;;;;;23.33;14.80;;;0.60;99.90;;;;;;5018042;28;20248;-42
2022/11/22 06:28:23;;;;;;;24.23;14.10;;;0.60;99.90;;;;;;5005803;28;20307;-42
2022/11/22 06:30:50;;;;;;;24.27;15.80;;;0.60;99.90;;;;;;5023368;28;20195;-43
2022/11/22 06:33:17;;;;;;;24.63;14.30;;;0.70;99.90;;;;;;5008983;28;20227;-40
2022/11/22 06:35:45;;;;;;;25.03;15.70;;;0.70;99.90;;;;;;5009675;28;20230;-40
2022/11/22 06:38:34;;;;;;;26.03;14.67;;;0.70;99.90;;;;;;5015610;28;20205;-43
2022/11/22 06:41:02;;;;;;;22.77;14.67;;;0.70;99.90;;;;;;5008280;28;20271;-41
2022/11/22 06:43:29;;;;;;;25.43;16.23;;;0.70;99.90;;;;;;5006710;28;20219;-41
2022/11/22 06:45:56;;;;;;;23.87;15.53;;;0.70;99.90;;;;;;5021926;28;20232;-40
2022/11/22 06:48:23;;;;;;;27.77;16.13;;;0.80;99.90;;;;;;5015007;28;20950;-43
2022/11/22 06:50:52;;;;;;;26.63;15.27;;;0.80;99.90;;;;;;5006048;28;20718;-41
2022/11/22 06:53:19;;;;;;;25.43;15.77;;;0.80;99.90;;;;;;5005493;28;20299;-40
2022/11/22 06:55:46;;;;;;;28.27;15.90;;;0.80;99.90;;;;;;5024404;28;20759;-42
2022/11/22 06:58:13;;;;;;;26.37;15.57;;;0.80;99.90;;;;;;5005313;28;20212;-41
2022/11/22 07:00:41;;;;;;;28.97;16.50;;;0.80;99.90;;;;;;5012778;28;20203;-45
2022/11/22 07:03:09;;;;;;;25.50;15.53;;;0.80;99.90;;;;;;4999210;28;20205;-45
2022/11/22 07:05:35;;;;;;;25.37;14.77;;;0.80;99.90;;;;;;5002368;28;20227;-46
2022/11/22 07:08:04;;;;;;;27.07;16.40;;;0.80;99.90;;;;;;5012426;28;20690;-44
2022/11/22 07:10:30;;;;;;;23.33;15.57;;;0.80;99.90;;;;;;5019089;28;20207;-42
2022/11/22 07:12:57;;;;;;;23.20;15.23;;;0.90;99.90;;;;;;5006645;28;20204;-44
2022/11/22 07:15:24;;;;;;;26.30;16.13;;;0.90;99.90;;;;;;5015945;28;20560;-49
2022/11/22 07:17:51;;;;;;;24.47;15.07;;;0.90;99.90;;;;;;5017194;28;20209;-43
2022/11/22 07:20:19;;;;;;;25.60;15.63;;;0.80;99.90;;;;;;5024858;28;20210;-43
2022/11/22 07:22:47;;;;;;;25.67;15.47;;;0.90;99.90;;;;;;5009600;28;20206;-43
2022/11/22 07:25:15;;;;;;;25.63;16.13;;;0.90;99.90;;;;;;5024485;28;20704;-43
2022/11/22 07:27:42;;;;;;;25.17;15.07;;;0.90;99.90;;;;;;5004186;28;22143;-43
2022/11/22 07:30:10;;;;;;;25.10;15.57;;;0.80;99.90;;;;;;5011546;28;20206;-42
2022/11/22 07:32:59;;;;;;;24.90;15.33;;;0.80;99.90;;;;;;5013612;28;20240;-42
2022/11/22 07:35:26;;;;;;;28.63;16.07;;;0.80;99.90;;;;;;5009974;28;20897;-42
2022/11/22 07:37:53;;;;;;;29.27;16.73;;;0.80;99.90;;;;;;5002404;28;20211;-42
2022/11/22 07:40:22;;;;;;;26.30;15.53;;;0.90;99.90;;;;;;5021925;28;20199;-42
2022/11/22 07:42:48;;;;;;;25.97;15.37;;;0.90;99.90;;;;;;4999878;28;20208;-41
2022/11/22 07:45:15;;;;;;;31.27;17.53;;;0.90;99.90;;;;;;5000729;28;22565;-42
2022/11/22 07:47:42;;;;;;;27.57;15.97;;;0.90;99.90;;;;;;5007612;28;20239;-43
2022/11/22 07:50:09;;;;;;;23.80;15.10;;;0.90;99.90;;;;;;5006987;28;20672;-44
2022/11/22 07:52:36;;;;;;;25.13;16.43;;;0.90;99.90;;;;;;5002376;28;20222;-43
2022/11/22 07:55:05;;;;;;;27.80;15.33;;;0.90;99.90;;;;;;5013608;28;20222;-42
2022/11/22 07:57:33;;;;;;;24.17;14.40;;;0.90;99.90;;;;;;5005216;28;20256;-43
2022/11/22 08:00:00;;;;;;;27.67;15.80;;;0.90;99.90;;;;;;4993547;28;20223;-43
2022/11/22 08:02:27;;;;;;;25.67;15.30;;;0.90;99.90;;;;;;5009819;28;20210;-43
2022/11/22 08:04:53;;;;;;;26.10;16.50;;;0.90;99.90;;;;;;5011692;28;20936;-43
2022/11/22 08:07:20;;;;;;;26.80;16.20;;;0.90;99.90;;;;;;4996707;28;20206;-46
2022/11/22 08:09:47;;;;;;;26.73;16.23;;;0.90;99.90;;;;;;5016499;28;20200;-41
2022/11/22 08:12:14;;;;;;;23.57;14.77;;;0.90;99.90;;;;;;5011718;28;20281;-42
2022/11/22 08:14:42;;;;;;;27.83;16.90;;;0.90;99.90;;;;;;5011017;28;20315;-41
2022/11/22 08:17:09;;;;;;;27.70;16.57;;;0.90;99.90;;;;;;5002858;28;20765;-42
2022/11/22 08:19:36;;;;;;;29.10;15.57;;;0.90;99.90;;;;;;5001144;28;20239;-42
2022/11/22 08:22:03;;;;;;;25.67;15.77;;;1.00;99.90;;;;;;4984847;28;21079;-45
2022/11/22 08:24:30;;;;;;;25.33;16.77;;;1.00;99.90;;;;;;5002558;28;20911;-42
2022/11/22 08:26:57;;;;;;;29.27;16.30;;;1.00;99.90;;;;;;5009654;28;20213;-69
2022/11/22 08:29:24;;;;;;;26.17;15.97;;;1.00;99.90;;;;;;5000749;28;20302;-41
2022/11/22 08:31:52;;;;;;;26.50;16.63;;;1.00;99.90;;;;;;5011431;28;20207;-42
2022/11/22 08:34:19;;;;;;;28.23;15.60;;;1.00;99.90;;;;;;4994185;28;20312;-44
2022/11/22 08:36:46;;;;;;;21.83;15.47;;;1.00;99.90;;;;;;5009515;28;20857;-41
2022/11/22 08:39:12;;;;;;;30.37;15.47;;;1.00;99.90;;;;;;4992671;28;20223;-45
2022/11/22 08:41:39;;;;;;;28.23;15.33;;;1.00;99.90;;;;;;5012031;28;20204;-42
2022/11/22 08:44:06;;;;;;;25.10;16.07;;;1.00;99.90;;;;;;5005789;28;20208;-42
2022/11/22 08:46:33;;;;;;;24.90;15.77;;;1.10;99.90;;;;;;5012378;28;20219;-44
2022/11/22 08:49:05;;;;;;;28.03;15.93;;;1.10;99.90;;;;;;5006121;28;20206;-46
2022/11/22 08:51:33;;;;;;;26.07;15.90;;;1.10;99.90;;;;;;5009658;28;22820;-43
2022/11/22 08:54:00;;;;;;;25.90;16.20;;;1.10;99.90;;;;;;5005741;28;20276;-41
2022/11/22 08:56:27;;;;;;;26.17;15.70;;;1.10;99.90;;;;;;5003389;28;20228;-42
2022/11/22 08:58:54;;;;;;;27.20;16.90;;;1.10;99.90;;;;;;5007746;28;20235;-42
2022/11/22 09:01:22;;;;;;;24.73;16.03;;;1.10;99.90;;;;;;5000101;28;20199;-42
2022/11/22 09:03:49;;;;;;;29.97;17.67;;;1.10;99.90;;;;;;5006710;28;20223;-42
2022/11/22 09:06:19;;;;;;;27.57;16.43;;;1.10;99.90;;;;;;4991695;28;20219;-41
2022/11/22 09:08:47;;;;;;;29.70;15.33;;;1.10;99.90;;;;;;5007764;28;20597;-43
2022/11/22 09:11:16;;;;;;;26.03;16.13;;;1.10;99.90;;;;;;4990701;28;20216;-41
2022/11/22 09:13:43;;;;;;;27.17;16.97;;;1.10;99.90;;;;;;5011259;28;20203;-44
2022/11/22 09:16:11;;;;;;;25.00;16.43;;;1.10;99.90;;;;;;5005445;28;20220;-43
2022/11/22 09:18:38;;;;;;;26.60;16.33;;;1.10;99.90;;;;;;5005930;28;20210;-41
2022/11/22 09:21:07;;;;;;;30.40;17.37;;;1.10;99.90;;;;;;5002880;28;20204;-40
2022/11/22 09:23:37;;;;;;;27.83;16.83;;;1.10;99.90;;;;;;5001090;28;20898;-42
2022/11/22 09:26:07;;;;;;;27.43;16.57;;;1.10;99.90;;;;;;5007870;28;20691;-41
2022/11/22 09:28:35;;;;;;;29.03;16.57;;;1.10;99.90;;;;;;5013774;28;20207;-41
2022/11/22 09:31:03;;;;;;;28.37;16.10;;;1.10;99.90;;;;;;5016391;28;20202;-41
2022/11/22 09:33:31;;;;;;;29.03;16.40;;;1.20;99.90;;;;;;5010616;28;20209;-42
2022/11/22 09:36:01;;;;;;;33.77;17.17;;;1.20;99.90;;;;;;5013473;28;20282;-42
2022/11/22 09:38:29;;;;;;;24.30;15.97;;;1.20;99.90;;;;;;5005161;28;20217;-41
2022/11/22 09:40:58;;;;;;;31.57;16.80;;;1.20;99.90;;;;;;5013923;28;20199;-41
2022/11/22 09:43:35;;;;;;;30.73;15.17;;;1.20;99.90;;;;;;5002636;28;20198;-43
2022/11/22 09:46:18;;;;;;;27.77;16.37;;;1.20;99.90;;;;;;5018777;28;20900;-42
2022/11/22 09:49:16;;;;;;;28.93;17.50;;;1.20;99.90;;;;;;5007815;28;20207;-42
2022/11/22 09:51:48;;;;;;;24.40;15.40;;;1.20;99.90;;;;;;5010079;28;20215;-41
2022/11/22 09:54:19;;;;;;;29.57;16.60;;;1.20;99.90;;;;;;5001689;28;20241;-42
2022/11/22 09:56:50;;;;;;;28.07;16.23;;;1.20;99.90;;;;;;5011464;28;20218;-42
2022/11/22 09:59:22;;;;;;;29.67;17.07;;;1.30;99.90;;;;;;4997683;28;20213;-42
2022/11/22 10:01:55;;;;;;;31.40;16.43;;;1.30;99.90;;;;;;5003627;28;20214;-41
2022/11/22 10:04:27;;;;;;;28.90;15.60;;;1.30;99.90;;;;;;5002329;28;20251;-44
2022/11/22 10:06:57;;;;;;;26.40;15.47;;;1.30;99.90;;;;;;5015738;28;20213;-44
2022/11/22 10:09:33;;;;;;;27.30;15.57;;;1.30;99.90;;;;;;5006885;28;20200;-41
2022/11/22 10:12:05;;;;;;;28.43;17.43;;;1.30;99.90;;;;;;5018948;28;20192;-41
2022/11/22 10:14:41;;;;;;;30.50;16.43;;;1.40;99.90;;;;;;5012513;28;20959;-41
2022/11/22 10:17:27;;;;;;;29.53;17.07;;;1.40;99.90;;;;;;5007749;28;20207;-43
2022/11/22 10:20:04;;;;;;;31.33;17.50;;;1.40;99.90;;;;;;5022257;28;20195;-42
2022/11/22 10:22:34;;;;;;;26.30;15.33;;;1.40;99.90;;;;;;5009843;28;20195;-42
2022/11/22 10:25:09;;;;;;;26.43;15.77;;;1.40;99.90;;;;;;5017358;28;20253;-43
2022/11/22 10:27:38;;;;;;;26.90;16.27;;;1.50;99.90;;;;;;5017940;28;20203;-41
2022/11/22 10:30:12;;;;;;;30.57;17.77;;;1.50;99.90;;;;;;5007724;28;20227;-42
2022/11/22 10:32:47;;;;;;;29.17;16.20;;;1.50;99.90;;;;;;5026124;28;20241;-40
2022/11/22 10:35:38;;;;;;;29.23;16.10;;;1.50;99.90;;;;;;5009937;28;20223;-43
2022/11/22 10:38:28;;;;;;;27.27;16.13;;;1.50;99.90;;;;;;5011337;28;20610;-41
2022/11/22 10:41:03;;;;;;;24.53;15.00;;;1.50;99.90;;;;;;5010148;28;20538;-41
2022/11/22 10:43:38;;;;;;;27.07;15.60;;;1.60;99.90;;;;;;5019853;28;20292;-45
2022/11/22 10:46:16;;;;;;;29.10;17.33;;;1.50;99.90;;;;;;5004416;28;20247;-41
2022/11/22 10:48:53;;;;;;;26.43;16.27;;;1.60;99.90;;;;;;5018207;28;20200;-44
2022/11/22 10:51:28;;;;;;;30.33;15.93;;;1.50;99.90;;;;;;5008563;28;20332;-43
2022/11/22 10:54:09;;;;;;;24.07;14.83;;;1.50;99.90;;;;;;5015653;28;20682;-43
2022/11/22 10:56:45;;;;;;;25.80;16.00;;;1.60;99.90;;;;;;5010967;28;20239;-43
2022/11/22 10:59:31;;;;;;;31.37;16.43;;;1.60;99.90;;;;;;5017360;28;20214;-43
2022/11/22 11:02:09;;;;;;;28.03;16.97;;;1.60;99.90;;;;;;5008597;28;20218;-43
2022/11/22 11:04:40;;;;;;;26.77;16.27;;;1.60;99.90;;;;;;5018864;28;20183;-43
2022/11/22 11:07:15;;;;;;;25.80;16.10;;;1.70;99.90;;;;;;5014372;28;20211;-43
2022/11/22 11:09:45;;;;;;;31.97;17.23;;;1.70;99.90;;;;;;5013979;28;20219;-42
2022/11/22 11:12:18;;;;;;;30.07;17.70;;;1.70;99.90;;;;;;5013030;28;21804;-45
2022/11/22 11:14:50;;;;;;;29.67;15.50;;;1.80;99.90;;;;;;5019099;28;20277;-45
2022/11/22 11:17:23;;;;;;;29.53;16.70;;;1.80;99.90;;;;;;5003507;28;20202;-44
2022/11/22 11:19:51;;;;;;;24.57;16.43;;;1.80;99.90;;;;;;5017680;28;20196;-43
2022/11/22 11:22:23;;;;;;;28.47;16.27;;;1.90;99.90;;;;;;5012220;28;20920;-43
2022/11/22 11:24:50;;;;;;;28.07;17.30;;;1.80;99.90;;;;;;5011069;28;20276;-42
2022/11/22 11:27:19;;;;;;;24.80;15.37;;;1.80;99.90;;;;;;5011045;28;20199;-43
2022/11/22 11:29:50;;;;;;;28.10;16.77;;;1.90;99.90;;;;;;5018349;28;20211;-42
2022/11/22 11:32:19;;;;;;;25.37;16.07;;;1.90;99.90;;;;;;5003153;28;21002;-42
2022/11/22 11:34:53;;;;;;;31.83;18.33;;;1.90;99.90;;;;;;5014581;28;20228;-42
2022/11/22 11:37:32;;;;;;;30.23;17.50;;;1.90;99.90;;;;;;5010195;28;20319;-41
2022/11/22 11:39:59;;;;;;;26.03;16.47;;;1.90;99.90;;;;;;5010509;28;20306;-49
2022/11/22 11:42:28;;;;;;;26.90;15.63;;;1.90;99.90;;;;;;5019224;28;20822;-46
2022/11/22 11:45:27;;;;;;;30.30;15.73;;;2.00;99.90;;;;;;5016124;28;20220;-46
2022/11/22 11:47:54;;;;;;;28.20;15.50;;;2.00;99.90;;;;;;4997202;28;20284;-47
2022/11/22 11:50:23;;;;;;;25.37;16.37;;;2.00;99.90;;;;;;5006418;28;20187;-49
2022/11/22 11:52:55;;;;;;;27.30;16.20;;;2.00;99.90;;;;;;5002994;28;20212;-50
2022/11/22 11:55:22;;;;;;;27.03;16.87;;;2.10;99.90;;;;;;5001434;28;20857;-48
2022/11/22 11:57:51;;;;;;;25.13;16.47;;;2.10;99.90;;;;;;5018310;28;20207;-46
2022/11/22 12:00:27;;;;;;;26.50;16.20;;;2.10;99.90;;;;;;5003784;28;20279;-46
2022/11/22 12:03:00;;;;;;;27.53;16.10;;;2.10;99.90;;;;;;4996075;28;20212;-47
2022/11/22 12:05:29;;;;;;;29.17;16.47;;;2.10;99.90;;;;;;5011175;28;20211;-46
2022/11/22 12:07:56;;;;;;;30.83;17.30;;;2.10;99.90;;;;;;5007359;28;20207;-46
2022/11/22 12:10:37;;;;;;;29.07;16.60;;;2.10;99.90;;;;;;5002851;28;22603;-46
2022/11/22 12:13:13;;;;;;;28.20;16.17;;;2.20;99.90;;;;;;5020762;28;20196;-48
2022/11/22 12:15:50;;;;;;;25.37;16.83;;;2.20;99.90;;;;;;5013520;28;20428;-48
2022/11/22 12:18:32;;;;;;;27.90;16.67;;;2.20;99.90;;;;;;5007948;28;20207;-49
2022/11/22 12:21:11;;;;;;;26.63;16.30;;;2.20;99.90;;;;;;5027280;28;20208;-50
2022/11/22 12:23:47;;;;;;;28.47;16.87;;;2.20;99.90;;;;;;5017323;28;20203;-47
2022/11/22 12:26:14;;;;;;;27.63;16.23;;;2.20;99.90;;;;;;5013234;28;20222;-48
2022/11/22 12:28:41;;;;;;;26.87;16.60;;;2.20;99.90;;;;;;5017420;28;20196;-52
2022/11/22 12:31:18;;;;;;;30.43;17.33;;;2.30;99.90;;;;;;5013928;28;20215;-50
2022/11/22 12:33:50;;;;;;;26.20;15.97;;;2.30;99.90;;;;;;5011279;28;20215;-47
2022/11/22 12:36:22;;;;;;;27.40;16.53;;;2.30;99.90;;;;;;5015938;28;20243;-45
2022/11/22 12:38:53;;;;;;;29.33;16.47;;;2.30;99.90;;;;;;5022954;28;20207;-49
2022/11/22 12:41:24;;;;;;;30.67;16.20;;;2.30;99.90;;;;;;5003346;28;20200;-46
2022/11/22 12:43:54;;;;;;;27.90;16.17;;;2.30;99.90;;;;;;5028279;28;20215;-47
2022/11/22 12:46:28;;;;;;;32.20;16.83;;;2.30;99.90;;;;;;5011452;28;21019;-46
2022/11/22 12:49:00;;;;;;;25.50;16.57;;;2.30;99.90;;;;;;5007639;28;20223;-45
2022/11/22 12:51:34;;;;;;;31.93;16.90;;;2.30;99.90;;;;;;5016781;28;20342;-47
2022/11/22 12:54:04;;;;;;;26.17;16.67;;;2.30;99.90;;;;;;5012684;28;20193;-48
2022/11/22 12:56:41;;;;;;;27.63;15.50;;;2.40;99.90;;;;;;5001302;28;20243;-48